sensor_id;sensor_type;location;lat;lon;timestamp;temperature;humidity
16814;DHT22;8524;57.650;11.926;2023-09-08T00:00:43;13.50;99.90
16814;DHT22;8524;57.650;11.926;2023-09-08T00:03:10;13.60;99.90
16814;DHT22;8524;57.650;11.926;2023-09-08T00:05:37;13.50;99.90
16814;DHT22;8524;57.650;11.926;2023-09-08T00:08:05;13.50;99.90
16814;DHT22;8524;57.650;11.926;2023-09-08T00:10:33;13.60;99.90
16814;DHT22;8524;57.650;11.926;2023-09-08T00:13:00;13.70;99.90
16814;DHT22;8524;57.650;11.926;2023-09-08T00:15:27;13.70;99.90
16814;DHT22;8524;57.650;11.926;2023-09-08T00:17:53;13.70;99.90
16814;DHT22;8524;57.650;11.926;2023-09-08T00:20:22;13.70;99.90
16814;DHT22;8524;57.650;11.926;2023-09-08T00:22:49;13.60;99.90
16814;DHT22;8524;57.650;11.926;2023-09-08T00:25:16;13.70;99.90
16814;DHT22;8524;57.650;11.926;2023-09-08T00:27:44;13.60;99.90
16814;DHT22;8524;57.650;11.926;2023-09-08T00:30:12;13.60;99.90
16814;DHT22;8524;57.650;11.926;2023-09-08T00:32:39;13.60;99.90
16814;DHT22;8524;57.650;11.926;2023-09-08T00:35:06;13.60;99.90
16814;DHT22;8524;57.650;11.926;2023-09-08T00:37:33;13.60;99.90
16814;DHT22;8524;57.650;11.926;2023-09-08T00:40:00;13.50;99.90
16814;DHT22;8524;57.650;11.926;2023-09-08T00:42:28;13.50;99.90
16814;DHT22;8524;57.650;11.926;2023-09-08T00:44:56;13.40;99.90
16814;DHT22;8524;57.650;11.926;2023-09-08T00:47:23;13.40;99.90
16814;DHT22;8524;57.650;11.926;2023-09-08T00:49:50;13.40;99.90
16814;DHT22;8524;57.650;11.926;2023-09-08T00:52:17;13.40;99.90
16814;DHT22;8524;57.650;11.926;2023-09-08T00:54:44;13.30;99.90
16814;DHT22;8524;57.650;11.926;2023-09-08T00:57:11;13.40;99.90
16814;DHT22;8524;57.650;11.926;2023-09-08T00:59:38;13.30;99.90
16814;DHT22;8524;57.650;11.926;2023-09-08T01:02:06;13.30;99.90
16814;DHT22;8524;57.650;11.926;2023-09-08T01:04:33;13.30;99.90
16814;DHT22;8524;57.650;11.926;2023-09-08T01:07:00;13.20;99.90
16814;DHT22;8524;57.650;11.926;2023-09-08T01:09:27;13.20;99.90
16814;DHT22;8524;57.650;11.926;2023-09-08T01:11:54;13.10;99.90
16814;DHT22;8524;57.650;11.926;2023-09-08T01:14:27;13.00;99.90
16814;DHT22;8524;57.650;11.926;2023-09-08T01:16:54;13.10;99.90
16814;DHT22;8524;57.650;11.926;2023-09-08T01:19:22;13.10;99.90
16814;DHT22;8524;57.650;11.926;2023-09-08T01:22:09;13.10;99.90
16814;DHT22;8524;57.650;11.926;2023-09-08T01:25:11;13.10;99.90
16814;DHT22;8524;57.650;11.926;2023-09-08T01:27:43;13.10;99.90
16814;DHT22;8524;57.650;11.926;2023-09-08T01:30:13;13.10;99.90
16814;DHT22;8524;57.650;11.926;2023-09-08T01:32:41;13.10;99.90
16814;DHT22;8524;57.650;11.926;2023-09-08T01:35:08;13.10;99.90
16814;DHT22;8524;57.650;11.926;2023-09-08T01:37:36;13.10;99.90
16814;DHT22;8524;57.650;11.926;2023-09-08T01:40:03;13.10;99.90
16814;DHT22;8524;57.650;11.926;2023-09-08T01:42:31;13.10;99.90
16814;DHT22;8524;57.650;11.926;2023-09-08T01:44:58;13.10;99.90
16814;DHT22;8524;57.650;11.926;2023-09-08T01:47:27;13.10;99.90
16814;DHT22;8524;57.650;11.926;2023-09-08T01:49:54;13.20;99.90
16814;DHT22;8524;57.650;11.926;2023-09-08T01:52:21;13.20;99.90
16814;DHT22;8524;57.650;11.926;2023-09-08T01:54:48;13.30;99.90
16814;DHT22;8524;57.650;11.926;2023-09-08T01:57:15;13.40;99.90
16814;DHT22;8524;57.650;11.926;2023-09-08T01:59:43;13.50;99.90
16814;DHT22;8524;57.650;11.926;2023-09-08T02:02:10;13.60;99.90
16814;DHT22;8524;57.650;11.926;2023-09-08T02:04:37;13.60;99.90
16814;DHT22;8524;57.650;11.926;2023-09-08T02:07:04;13.70;99.90
16814;DHT22;8524;57.650;11.926;2023-09-08T02:09:32;13.70;99.90
16814;DHT22;8524;57.650;11.926;2023-09-08T02:11:59;13.80;99.90
16814;DHT22;8524;57.650;11.926;2023-09-08T02:14:26;13.90;99.90
16814;DHT22;8524;57.650;11.926;2023-09-08T02:16:54;14.00;99.90
16814;DHT22;8524;57.650;11.926;2023-09-08T02:19:22;14.10;99.90
16814;DHT22;8524;57.650;11.926;2023-09-08T02:21:49;14.10;99.90
16814;DHT22;8524;57.650;11.926;2023-09-08T02:24:16;14.30;99.90
16814;DHT22;8524;57.650;11.926;2023-09-08T02:26:43;14.40;99.90
16814;DHT22;8524;57.650;11.926;2023-09-08T02:29:10;14.40;99.90
16814;DHT22;8524;57.650;11.926;2023-09-08T02:31:37;14.50;99.90
16814;DHT22;8524;57.650;11.926;2023-09-08T02:34:05;14.50;99.90
16814;DHT22;8524;57.650;11.926;2023-09-08T02:36:32;14.60;99.90
16814;DHT22;8524;57.650;11.926;2023-09-08T02:38:59;14.60;99.90
16814;DHT22;8524;57.650;11.926;2023-09-08T02:41:26;14.60;99.90
16814;DHT22;8524;57.650;11.926;2023-09-08T02:43:53;14.70;99.90
16814;DHT22;8524;57.650;11.926;2023-09-08T02:46:20;14.70;99.90
16814;DHT22;8524;57.650;11.926;2023-09-08T02:48:46;14.70;99.90
16814;DHT22;8524;57.650;11.926;2023-09-08T02:51:15;14.70;99.90
16814;DHT22;8524;57.650;11.926;2023-09-08T02:53:42;14.70;99.90
16814;DHT22;8524;57.650;11.926;2023-09-08T02:56:08;14.70;99.90
16814;DHT22;8524;57.650;11.926;2023-09-08T02:58:35;14.70;99.90
16814;DHT22;8524;57.650;11.926;2023-09-08T03:01:13;14.80;99.90
16814;DHT22;8524;57.650;11.926;2023-09-08T03:03:40;14.90;99.90
16814;DHT22;8524;57.650;11.926;2023-09-08T03:06:08;14.90;99.90
16814;DHT22;8524;57.650;11.926;2023-09-08T03:08:36;14.90;99.90
16814;DHT22;8524;57.650;11.926;2023-09-08T03:11:04;15.00;99.90
16814;DHT22;8524;57.650;11.926;2023-09-08T03:13:32;15.10;99.90
16814;DHT22;8524;57.650;11.926;2023-09-08T03:16:03;15.10;99.90
16814;DHT22;8524;57.650;11.926;2023-09-08T03:18:31;15.10;99.90
16814;DHT22;8524;57.650;11.926;2023-09-08T03:20:58;15.10;99.90
16814;DHT22;8524;57.650;11.926;2023-09-08T03:23:26;15.10;99.90
16814;DHT22;8524;57.650;11.926;2023-09-08T03:25:54;15.10;99.90
16814;DHT22;8524;57.650;11.926;2023-09-08T03:28:21;15.10;99.90
16814;DHT22;8524;57.650;11.926;2023-09-08T03:30:48;15.20;99.90
16814;DHT22;8524;57.650;11.926;2023-09-08T03:33:14;15.20;99.90
16814;DHT22;8524;57.650;11.926;2023-09-08T03:35:40;15.20;99.90
16814;DHT22;8524;57.650;11.926;2023-09-08T03:38:07;15.20;99.90
16814;DHT22;8524;57.650;11.926;2023-09-08T03:40:34;15.20;99.90
16814;DHT22;8524;57.650;11.926;2023-09-08T03:43:03;15.20;99.90
16814;DHT22;8524;57.650;11.926;2023-09-08T03:45:30;15.30;99.90
16814;DHT22;8524;57.650;11.926;2023-09-08T03:47:57;15.30;99.90
16814;DHT22;8524;57.650;11.926;2023-09-08T03:50:24;15.30;99.90
16814;DHT22;8524;57.650;11.926;2023-09-08T03:52:51;15.30;99.90
16814;DHT22;8524;57.650;11.926;2023-09-08T03:55:18;15.30;99.90
16814;DHT22;8524;57.650;11.926;2023-09-08T03:57:45;15.40;99.90
16814;DHT22;8524;57.650;11.926;2023-09-08T04:00:15;15.40;99.90
16814;DHT22;8524;57.650;11.926;2023-09-08T04:02:47;15.40;99.90
16814;DHT22;8524;57.650;11.926;2023-09-08T04:05:14;15.40;99.90
16814;DHT22;8524;57.650;11.926;2023-09-08T04:07:41;15.40;99.90
16814;DHT22;8524;57.650;11.926;2023-09-08T04:10:09;15.40;99.90
16814;DHT22;8524;57.650;11.926;2023-09-08T04:12:35;15.50;99.90
16814;DHT22;8524;57.650;11.926;2023-09-08T04:15:03;15.50;99.90
16814;DHT22;8524;57.650;11.926;2023-09-08T04:17:31;15.50;99.90
16814;DHT22;8524;57.650;11.926;2023-09-08T04:19:59;15.50;99.90
16814;DHT22;8524;57.650;11.926;2023-09-08T04:22:26;15.50;99.90
16814;DHT22;8524;57.650;11.926;2023-09-08T04:24:52;15.50;99.90
16814;DHT22;8524;57.650;11.926;2023-09-08T04:27:21;15.60;99.90
16814;DHT22;8524;57.650;11.926;2023-09-08T04:29:47;15.60;99.90
16814;DHT22;8524;57.650;11.926;2023-09-08T04:32:15;15.60;99.90
16814;DHT22;8524;57.650;11.926;2023-09-08T04:34:43;15.70;99.90
16814;DHT22;8524;57.650;11.926;2023-09-08T04:37:10;15.60;99.90
16814;DHT22;8524;57.650;11.926;2023-09-08T04:39:37;15.60;99.90
16814;DHT22;8524;57.650;11.926;2023-09-08T04:42:05;15.60;99.90
16814;DHT22;8524;57.650;11.926;2023-09-08T04:44:32;15.60;99.90
16814;DHT22;8524;57.650;11.926;2023-09-08T04:46:59;15.70;99.90
16814;DHT22;8524;57.650;11.926;2023-09-08T04:49:26;15.70;99.90
16814;DHT22;8524;57.650;11.926;2023-09-08T04:51:56;15.70;99.90
16814;DHT22;8524;57.650;11.926;2023-09-08T04:54:23;15.70;99.90
16814;DHT22;8524;57.650;11.926;2023-09-08T04:56:52;15.70;99.90
16814;DHT22;8524;57.650;11.926;2023-09-08T04:59:20;15.70;99.90
16814;DHT22;8524;57.650;11.926;2023-09-08T05:01:48;15.70;99.90
16814;DHT22;8524;57.650;11.926;2023-09-08T05:04:16;15.70;99.90
16814;DHT22;8524;57.650;11.926;2023-09-08T05:06:43;15.70;99.90
16814;DHT22;8524;57.650;11.926;2023-09-08T05:09:12;15.70;99.90
16814;DHT22;8524;57.650;11.926;2023-09-08T05:11:39;15.70;99.90
16814;DHT22;8524;57.650;11.926;2023-09-08T05:14:06;15.70;99.90
16814;DHT22;8524;57.650;11.926;2023-09-08T05:16:33;15.70;99.90
16814;DHT22;8524;57.650;11.926;2023-09-08T05:19:05;15.70;99.90
16814;DHT22;8524;57.650;11.926;2023-09-08T05:21:33;15.70;99.90
16814;DHT22;8524;57.650;11.926;2023-09-08T05:24:00;15.70;99.90
16814;DHT22;8524;57.650;11.926;2023-09-08T05:26:29;15.70;99.90
16814;DHT22;8524;57.650;11.926;2023-09-08T05:28:55;15.80;99.90
16814;DHT22;8524;57.650;11.926;2023-09-08T05:31:22;15.80;99.90
16814;DHT22;8524;57.650;11.926;2023-09-08T05:33:50;15.80;99.90
16814;DHT22;8524;57.650;11.926;2023-09-08T05:36:17;15.80;99.90
16814;DHT22;8524;57.650;11.926;2023-09-08T05:38:44;15.80;99.90
16814;DHT22;8524;57.650;11.926;2023-09-08T05:41:11;15.80;99.90
16814;DHT22;8524;57.650;11.926;2023-09-08T05:43:41;15.80;99.90
16814;DHT22;8524;57.650;11.926;2023-09-08T05:46:08;15.90;99.90
16814;DHT22;8524;57.650;11.926;2023-09-08T05:48:35;15.90;99.90
16814;DHT22;8524;57.650;11.926;2023-09-08T05:51:03;15.90;99.90
16814;DHT22;8524;57.650;11.926;2023-09-08T05:53:32;15.90;99.90
16814;DHT22;8524;57.650;11.926;2023-09-08T05:56:01;15.90;99.90
16814;DHT22;8524;57.650;11.926;2023-09-08T05:58:30;16.00;99.90
16814;DHT22;8524;57.650;11.926;2023-09-08T06:00:59;16.00;99.90
16814;DHT22;8524;57.650;11.926;2023-09-08T06:03:26;16.00;99.90
16814;DHT22;8524;57.650;11.926;2023-09-08T06:05:53;16.10;99.90
16814;DHT22;8524;57.650;11.926;2023-09-08T06:08:20;16.10;99.90
16814;DHT22;8524;57.650;11.926;2023-09-08T06:10:47;16.10;99.90
16814;DHT22;8524;57.650;11.926;2023-09-08T06:13:14;16.10;99.90
16814;DHT22;8524;57.650;11.926;2023-09-08T06:15:41;16.10;99.90
16814;DHT22;8524;57.650;11.926;2023-09-08T06:18:11;16.10;99.90
16814;DHT22;8524;57.650;11.926;2023-09-08T06:20:44;16.10;99.90
16814;DHT22;8524;57.650;11.926;2023-09-08T06:23:12;16.10;99.90
16814;DHT22;8524;57.650;11.926;2023-09-08T06:26:00;16.20;99.90
16814;DHT22;8524;57.650;11.926;2023-09-08T06:28:27;16.20;99.90
16814;DHT22;8524;57.650;11.926;2023-09-08T06:30:55;16.20;99.90
16814;DHT22;8524;57.650;11.926;2023-09-08T06:33:26;16.20;99.90
16814;DHT22;8524;57.650;11.926;2023-09-08T06:35:53;16.20;99.90
16814;DHT22;8524;57.650;11.926;2023-09-08T06:38:24;16.30;99.90
16814;DHT22;8524;57.650;11.926;2023-09-08T06:41:08;16.20;99.90
16814;DHT22;8524;57.650;11.926;2023-09-08T06:43:36;16.30;99.90
16814;DHT22;8524;57.650;11.926;2023-09-08T06:46:08;16.30;99.90
16814;DHT22;8524;57.650;11.926;2023-09-08T06:48:49;16.40;99.90
16814;DHT22;8524;57.650;11.926;2023-09-08T06:54:40;16.40;99.90
16814;DHT22;8524;57.650;11.926;2023-09-08T06:57:07;16.40;99.90
16814;DHT22;8524;57.650;11.926;2023-09-08T06:59:34;16.40;99.90
16814;DHT22;8524;57.650;11.926;2023-09-08T07:02:01;16.40;99.90
16814;DHT22;8524;57.650;11.926;2023-09-08T07:04:31;16.60;99.90
16814;DHT22;8524;57.650;11.926;2023-09-08T07:06:58;16.60;99.90
16814;DHT22;8524;57.650;11.926;2023-09-08T07:09:27;16.70;99.90
16814;DHT22;8524;57.650;11.926;2023-09-08T07:11:54;16.80;99.90
16814;DHT22;8524;57.650;11.926;2023-09-08T07:14:31;16.90;99.90
16814;DHT22;8524;57.650;11.926;2023-09-08T07:17:02;16.80;99.90
16814;DHT22;8524;57.650;11.926;2023-09-08T07:19:43;16.90;99.90
16814;DHT22;8524;57.650;11.926;2023-09-08T07:22:11;16.90;99.90
16814;DHT22;8524;57.650;11.926;2023-09-08T07:24:41;17.00;99.90
16814;DHT22;8524;57.650;11.926;2023-09-08T07:27:12;17.00;99.90
16814;DHT22;8524;57.650;11.926;2023-09-08T07:29:40;17.00;99.90
16814;DHT22;8524;57.650;11.926;2023-09-08T07:32:09;17.00;99.90
16814;DHT22;8524;57.650;11.926;2023-09-08T07:34:38;17.00;99.90
16814;DHT22;8524;57.650;11.926;2023-09-08T07:37:06;17.00;99.90
16814;DHT22;8524;57.650;11.926;2023-09-08T07:39:42;17.00;99.90
16814;DHT22;8524;57.650;11.926;2023-09-08T07:42:10;17.00;99.90
16814;DHT22;8524;57.650;11.926;2023-09-08T07:44:37;17.10;99.90
16814;DHT22;8524;57.650;11.926;2023-09-08T07:47:14;17.10;99.90
16814;DHT22;8524;57.650;11.926;2023-09-08T07:49:47;17.00;99.90
16814;DHT22;8524;57.650;11.926;2023-09-08T07:52:14;17.10;99.90
16814;DHT22;8524;57.650;11.926;2023-09-08T07:54:44;17.10;99.90
16814;DHT22;8524;57.650;11.926;2023-09-08T07:57:11;17.10;99.90
16814;DHT22;8524;57.650;11.926;2023-09-08T07:59:40;17.10;99.90
16814;DHT22;8524;57.650;11.926;2023-09-08T08:02:12;17.20;99.90
16814;DHT22;8524;57.650;11.926;2023-09-08T08:04:39;17.40;99.90
16814;DHT22;8524;57.650;11.926;2023-09-08T08:07:07;17.40;99.90
16814;DHT22;8524;57.650;11.926;2023-09-08T08:09:34;17.50;99.90
16814;DHT22;8524;57.650;11.926;2023-09-08T08:12:01;17.30;99.90
16814;DHT22;8524;57.650;11.926;2023-09-08T08:14:31;17.20;99.90
16814;DHT22;8524;57.650;11.926;2023-09-08T08:16:59;17.30;99.90
16814;DHT22;8524;57.650;11.926;2023-09-08T08:19:27;17.50;99.90
16814;DHT22;8524;57.650;11.926;2023-09-08T08:22:04;17.60;99.90
16814;DHT22;8524;57.650;11.926;2023-09-08T08:25:01;17.50;99.90
16814;DHT22;8524;57.650;11.926;2023-09-08T08:27:41;17.50;99.90
16814;DHT22;8524;57.650;11.926;2023-09-08T08:30:12;17.60;99.90
16814;DHT22;8524;57.650;11.926;2023-09-08T08:32:39;17.70;99.90
16814;DHT22;8524;57.650;11.926;2023-09-08T08:35:24;17.90;99.90
16814;DHT22;8524;57.650;11.926;2023-09-08T08:37:52;18.10;99.90
16814;DHT22;8524;57.650;11.926;2023-09-08T08:40:20;18.20;99.90
16814;DHT22;8524;57.650;11.926;2023-09-08T08:42:54;18.20;99.90
16814;DHT22;8524;57.650;11.926;2023-09-08T08:45:23;18.50;99.90
16814;DHT22;8524;57.650;11.926;2023-09-08T08:47:54;18.60;99.90
16814;DHT22;8524;57.650;11.926;2023-09-08T08:50:23;18.70;99.90
16814;DHT22;8524;57.650;11.926;2023-09-08T08:52:51;19.00;99.90
16814;DHT22;8524;57.650;11.926;2023-09-08T08:55:19;19.10;99.90
16814;DHT22;8524;57.650;11.926;2023-09-08T08:57:47;19.30;99.90
16814;DHT22;8524;57.650;11.926;2023-09-08T09:00:18;19.40;99.90
16814;DHT22;8524;57.650;11.926;2023-09-08T09:02:46;19.50;99.90
16814;DHT22;8524;57.650;11.926;2023-09-08T09:05:16;19.60;99.90
16814;DHT22;8524;57.650;11.926;2023-09-08T09:07:44;19.70;99.90
16814;DHT22;8524;57.650;11.926;2023-09-08T09:10:14;19.90;99.90
16814;DHT22;8524;57.650;11.926;2023-09-08T09:12:54;20.10;99.90
16814;DHT22;8524;57.650;11.926;2023-09-08T09:15:32;20.30;99.90
16814;DHT22;8524;57.650;11.926;2023-09-08T09:18:03;20.70;99.90
16814;DHT22;8524;57.650;11.926;2023-09-08T09:20:31;20.70;99.90
16814;DHT22;8524;57.650;11.926;2023-09-08T09:22:58;20.80;99.90
16814;DHT22;8524;57.650;11.926;2023-09-08T09:25:29;20.70;99.90
16814;DHT22;8524;57.650;11.926;2023-09-08T09:28:01;20.80;99.90
16814;DHT22;8524;57.650;11.926;2023-09-08T09:30:46;20.90;99.90
16814;DHT22;8524;57.650;11.926;2023-09-08T09:33:14;21.10;99.90
16814;DHT22;8524;57.650;11.926;2023-09-08T09:36:00;21.10;99.90
16814;DHT22;8524;57.650;11.926;2023-09-08T09:38:28;21.30;99.90
16814;DHT22;8524;57.650;11.926;2023-09-08T09:41:17;21.20;99.90
16814;DHT22;8524;57.650;11.926;2023-09-08T09:43:51;21.30;99.90
16814;DHT22;8524;57.650;11.926;2023-09-08T09:46:25;21.50;99.90
16814;DHT22;8524;57.650;11.926;2023-09-08T09:48:57;21.50;99.90
16814;DHT22;8524;57.650;11.926;2023-09-08T09:51:25;21.60;99.90
16814;DHT22;8524;57.650;11.926;2023-09-08T09:54:00;21.80;99.90
16814;DHT22;8524;57.650;11.926;2023-09-08T09:56:33;21.80;99.90
16814;DHT22;8524;57.650;11.926;2023-09-08T09:59:08;21.90;99.90
16814;DHT22;8524;57.650;11.926;2023-09-08T10:01:35;22.00;99.90
16814;DHT22;8524;57.650;11.926;2023-09-08T10:04:23;22.30;99.90
16814;DHT22;8524;57.650;11.926;2023-09-08T10:06:54;22.40;99.90
16814;DHT22;8524;57.650;11.926;2023-09-08T10:09:24;22.40;99.90
16814;DHT22;8524;57.650;11.926;2023-09-08T10:11:54;22.40;99.90
16814;DHT22;8524;57.650;11.926;2023-09-08T10:14:27;22.50;99.90
16814;DHT22;8524;57.650;11.926;2023-09-08T10:16:58;22.70;99.90
16814;DHT22;8524;57.650;11.926;2023-09-08T10:19:26;22.80;99.90
16814;DHT22;8524;57.650;11.926;2023-09-08T10:21:57;23.00;99.90
16814;DHT22;8524;57.650;11.926;2023-09-08T10:24:27;23.30;99.90
16814;DHT22;8524;57.650;11.926;2023-09-08T10:27:00;23.50;99.90
16814;DHT22;8524;57.650;11.926;2023-09-08T10:29:30;23.50;99.90
16814;DHT22;8524;57.650;11.926;2023-09-08T10:31:58;23.50;99.90
16814;DHT22;8524;57.650;11.926;2023-09-08T10:34:26;23.50;99.90
16814;DHT22;8524;57.650;11.926;2023-09-08T10:36:54;23.30;99.90
16814;DHT22;8524;57.650;11.926;2023-09-08T10:39:29;23.30;99.90
16814;DHT22;8524;57.650;11.926;2023-09-08T10:42:22;23.40;99.90
16814;DHT22;8524;57.650;11.926;2023-09-08T10:45:14;23.50;99.90
16814;DHT22;8524;57.650;11.926;2023-09-08T10:47:54;23.70;99.90
16814;DHT22;8524;57.650;11.926;2023-09-08T10:50:29;23.80;99.90
16814;DHT22;8524;57.650;11.926;2023-09-08T10:53:05;23.70;99.90
16814;DHT22;8524;57.650;11.926;2023-09-08T10:55:37;24.00;99.90
16814;DHT22;8524;57.650;11.926;2023-09-08T10:58:06;24.20;99.90
16814;DHT22;8524;57.650;11.926;2023-09-08T11:00:50;24.40;99.90
16814;DHT22;8524;57.650;11.926;2023-09-08T11:03:27;24.60;99.90
16814;DHT22;8524;57.650;11.926;2023-09-08T11:05:56;24.40;99.90
16814;DHT22;8524;57.650;11.926;2023-09-08T11:08:24;24.20;99.90
16814;DHT22;8524;57.650;11.926;2023-09-08T11:10:51;24.00;99.90
16814;DHT22;8524;57.650;11.926;2023-09-08T11:13:18;24.00;99.90
16814;DHT22;8524;57.650;11.926;2023-09-08T11:15:52;24.30;99.90
16814;DHT22;8524;57.650;11.926;2023-09-08T11:18:33;24.40;99.90
16814;DHT22;8524;57.650;11.926;2023-09-08T11:21:07;24.10;99.90
16814;DHT22;8524;57.650;11.926;2023-09-08T11:23:36;24.00;99.90
16814;DHT22;8524;57.650;11.926;2023-09-08T11:26:03;24.00;99.90
16814;DHT22;8524;57.650;11.926;2023-09-08T11:28:30;24.20;99.90
16814;DHT22;8524;57.650;11.926;2023-09-08T11:30:59;24.20;99.90
16814;DHT22;8524;57.650;11.926;2023-09-08T11:33:26;24.50;99.90
16814;DHT22;8524;57.650;11.926;2023-09-08T11:35:53;24.50;99.90
16814;DHT22;8524;57.650;11.926;2023-09-08T11:38:25;24.40;99.90
16814;DHT22;8524;57.650;11.926;2023-09-08T11:40:53;24.50;99.90
16814;DHT22;8524;57.650;11.926;2023-09-08T11:43:20;24.50;99.90
16814;DHT22;8524;57.650;11.926;2023-09-08T11:45:47;24.50;99.90
16814;DHT22;8524;57.650;11.926;2023-09-08T11:48:16;24.40;99.90
16814;DHT22;8524;57.650;11.926;2023-09-08T11:50:43;24.70;99.90
16814;DHT22;8524;57.650;11.926;2023-09-08T11:53:10;24.90;99.90
16814;DHT22;8524;57.650;11.926;2023-09-08T11:55:37;24.80;99.90
16814;DHT22;8524;57.650;11.926;2023-09-08T11:58:05;24.60;99.90
16814;DHT22;8524;57.650;11.926;2023-09-08T12:00:32;24.60;99.90
16814;DHT22;8524;57.650;11.926;2023-09-08T12:03:10;24.40;99.90
16814;DHT22;8524;57.650;11.926;2023-09-08T12:05:39;24.30;99.90
16814;DHT22;8524;57.650;11.926;2023-09-08T12:08:06;24.30;99.90
16814;DHT22;8524;57.650;11.926;2023-09-08T12:10:38;24.50;99.90
16814;DHT22;8524;57.650;11.926;2023-09-08T12:13:06;24.60;99.90
16814;DHT22;8524;57.650;11.926;2023-09-08T12:15:35;24.30;99.90
16814;DHT22;8524;57.650;11.926;2023-09-08T12:18:04;24.40;99.90
16814;DHT22;8524;57.650;11.926;2023-09-08T12:20:31;24.50;99.90
16814;DHT22;8524;57.650;11.926;2023-09-08T12:23:02;24.40;99.90
16814;DHT22;8524;57.650;11.926;2023-09-08T12:25:29;24.50;99.90
16814;DHT22;8524;57.650;11.926;2023-09-08T12:27:57;24.40;99.90
16814;DHT22;8524;57.650;11.926;2023-09-08T12:30:24;24.20;99.90
16814;DHT22;8524;57.650;11.926;2023-09-08T12:32:57;24.30;99.90
16814;DHT22;8524;57.650;11.926;2023-09-08T12:35:25;24.30;99.90
16814;DHT22;8524;57.650;11.926;2023-09-08T12:37:56;24.50;99.90
16814;DHT22;8524;57.650;11.926;2023-09-08T12:40:25;24.20;99.90
16814;DHT22;8524;57.650;11.926;2023-09-08T12:42:52;24.40;99.90
16814;DHT22;8524;57.650;11.926;2023-09-08T12:45:19;24.60;99.90
16814;DHT22;8524;57.650;11.926;2023-09-08T12:47:46;24.50;99.90
16814;DHT22;8524;57.650;11.926;2023-09-08T12:50:13;24.80;99.90
16814;DHT22;8524;57.650;11.926;2023-09-08T12:52:40;24.80;99.90
16814;DHT22;8524;57.650;11.926;2023-09-08T12:55:11;24.70;99.90
16814;DHT22;8524;57.650;11.926;2023-09-08T12:57:39;24.90;99.90
16814;DHT22;8524;57.650;11.926;2023-09-08T13:00:07;24.80;99.90
16814;DHT22;8524;57.650;11.926;2023-09-08T13:02:34;24.90;99.90
16814;DHT22;8524;57.650;11.926;2023-09-08T13:05:01;24.70;99.90
16814;DHT22;8524;57.650;11.926;2023-09-08T13:07:28;24.80;99.90
16814;DHT22;8524;57.650;11.926;2023-09-08T13:09:56;24.70;99.90
16814;DHT22;8524;57.650;11.926;2023-09-08T13:12:23;24.60;99.90
16814;DHT22;8524;57.650;11.926;2023-09-08T13:14:52;24.50;99.90
16814;DHT22;8524;57.650;11.926;2023-09-08T13:17:18;24.40;99.90
16814;DHT22;8524;57.650;11.926;2023-09-08T13:19:47;24.40;99.90
16814;DHT22;8524;57.650;11.926;2023-09-08T13:22:14;24.40;99.90
16814;DHT22;8524;57.650;11.926;2023-09-08T13:24:41;24.30;99.90
16814;DHT22;8524;57.650;11.926;2023-09-08T13:27:07;24.30;99.90
16814;DHT22;8524;57.650;11.926;2023-09-08T13:29:34;24.50;99.90
16814;DHT22;8524;57.650;11.926;2023-09-08T13:32:04;24.50;99.90
16814;DHT22;8524;57.650;11.926;2023-09-08T13:34:31;24.40;99.90
16814;DHT22;8524;57.650;11.926;2023-09-08T13:37:00;24.40;99.90
16814;DHT22;8524;57.650;11.926;2023-09-08T13:39:27;24.60;99.90
16814;DHT22;8524;57.650;11.926;2023-09-08T13:41:55;24.80;99.90
16814;DHT22;8524;57.650;11.926;2023-09-08T13:44:23;25.00;99.90
16814;DHT22;8524;57.650;11.926;2023-09-08T13:46:51;25.20;99.90
16814;DHT22;8524;57.650;11.926;2023-09-08T13:49:21;25.40;99.90
16814;DHT22;8524;57.650;11.926;2023-09-08T13:51:48;25.20;99.90
16814;DHT22;8524;57.650;11.926;2023-09-08T13:54:16;25.20;99.90
16814;DHT22;8524;57.650;11.926;2023-09-08T13:56:43;25.10;99.90
16814;DHT22;8524;57.650;11.926;2023-09-08T13:59:11;25.30;99.90
16814;DHT22;8524;57.650;11.926;2023-09-08T14:01:38;25.50;99.90
16814;DHT22;8524;57.650;11.926;2023-09-08T14:04:05;25.50;99.90
16814;DHT22;8524;57.650;11.926;2023-09-08T14:06:34;25.40;99.90
16814;DHT22;8524;57.650;11.926;2023-09-08T14:09:00;25.50;99.90
16814;DHT22;8524;57.650;11.926;2023-09-08T14:11:27;25.30;99.90
16814;DHT22;8524;57.650;11.926;2023-09-08T14:13:54;25.10;99.90
16814;DHT22;8524;57.650;11.926;2023-09-08T14:16:21;25.30;99.90
16814;DHT22;8524;57.650;11.926;2023-09-08T14:18:48;25.20;99.90
16814;DHT22;8524;57.650;11.926;2023-09-08T14:21:15;25.10;99.90
16814;DHT22;8524;57.650;11.926;2023-09-08T14:23:43;25.30;99.90
16814;DHT22;8524;57.650;11.926;2023-09-08T14:26:10;25.20;99.90
16814;DHT22;8524;57.650;11.926;2023-09-08T14:28:37;25.10;99.90
16814;DHT22;8524;57.650;11.926;2023-09-08T14:31:04;25.10;99.90
16814;DHT22;8524;57.650;11.926;2023-09-08T14:33:31;24.90;99.90
16814;DHT22;8524;57.650;11.926;2023-09-08T14:35:57;24.80;99.90
16814;DHT22;8524;57.650;11.926;2023-09-08T14:38:25;24.70;99.90
16814;DHT22;8524;57.650;11.926;2023-09-08T14:40:57;24.60;99.90
16814;DHT22;8524;57.650;11.926;2023-09-08T14:43:26;24.40;99.90
16814;DHT22;8524;57.650;11.926;2023-09-08T14:45:53;24.40;99.90
16814;DHT22;8524;57.650;11.926;2023-09-08T14:48:20;24.30;99.90
16814;DHT22;8524;57.650;11.926;2023-09-08T14:50:47;24.30;99.90
16814;DHT22;8524;57.650;11.926;2023-09-08T14:53:14;24.30;99.90
16814;DHT22;8524;57.650;11.926;2023-09-08T14:55:41;24.30;99.90
16814;DHT22;8524;57.650;11.926;2023-09-08T14:58:11;24.10;99.90
16814;DHT22;8524;57.650;11.926;2023-09-08T15:00:38;23.90;99.90
16814;DHT22;8524;57.650;11.926;2023-09-08T15:03:05;23.70;99.90
16814;DHT22;8524;57.650;11.926;2023-09-08T15:05:32;23.60;99.90
16814;DHT22;8524;57.650;11.926;2023-09-08T15:07:59;23.50;99.90
16814;DHT22;8524;57.650;11.926;2023-09-08T15:10:27;23.20;99.90
16814;DHT22;8524;57.650;11.926;2023-09-08T15:12:54;23.00;99.90
16814;DHT22;8524;57.650;11.926;2023-09-08T15:15:22;22.90;99.90
16814;DHT22;8524;57.650;11.926;2023-09-08T15:17:51;22.90;99.90
16814;DHT22;8524;57.650;11.926;2023-09-08T15:20:18;22.70;99.90
16814;DHT22;8524;57.650;11.926;2023-09-08T15:22:45;22.70;99.90
16814;DHT22;8524;57.650;11.926;2023-09-08T15:25:12;22.70;99.90
16814;DHT22;8524;57.650;11.926;2023-09-08T15:27:39;22.70;99.90
16814;DHT22;8524;57.650;11.926;2023-09-08T15:30:07;22.50;99.90
16814;DHT22;8524;57.650;11.926;2023-09-08T15:32:35;22.50;99.90
16814;DHT22;8524;57.650;11.926;2023-09-08T15:35:04;22.40;99.90
16814;DHT22;8524;57.650;11.926;2023-09-08T15:37:31;22.30;99.90
16814;DHT22;8524;57.650;11.926;2023-09-08T15:39:58;22.20;99.90
16814;DHT22;8524;57.650;11.926;2023-09-08T15:42:25;22.20;99.90
16814;DHT22;8524;57.650;11.926;2023-09-08T15:44:52;22.10;99.90